KYKN/YKN METAR and TAF weather

Enter ICAO airport designator
Station Type Date Time Source
KYKN METAR 2021/01/27 12:56 UTC NOAA

KYKN 271256Z AUTO 02006KT 8SM -SN FEW018 BKN032 BKN110 M13/M14 A3038 RMK AO2 SLP331 P0000 T11331144 FZRANO


Station Type Date Time Source
KYKN Decoded METAR 2021/01/27 12:56 UTC NOAA

Yankton, Chan Gurney Municipal Airport, SD, United States (KYKN) 42-55N 097-23W
Jan 27, 2021 - 07:56 AM EST / 2021.01.27 1256 UTC
Wind: from the NNE (020 degrees) at 7 MPH (6 KT):0
Visibility: 8 mile(s):0
Sky conditions: mostly cloudy
Weather: light snow
Precipitation last hour: A trace
Temperature: 8.1 F (-13.3 C)
Windchill: -4 F (-20 C):1
Dew Point: 6.1 F (-14.4 C)
Relative Humidity: 91%
Pressure (altimeter): 30.38 in. Hg (1028 hPa)
ob: KYKN 271256Z AUTO 02006KT 8SM -SN FEW018 BKN032 BKN110 M13/M14 A3038 RMK AO2 SLP331 P0000 T11331144 FZRANO
cycle: 13

Station Type Date Time Source
KYKN TAF UTC NOAA

Error!

Example: see airport list